Time;durP1;ratioP1;P1;durP2;ratioP2;P2;SDS_P1;SDS_P2;PMS_P1;PMS_P2;Temp;Humidity;BMP_temperature;BMP_pressure;BME280_temperature;BME280_humidity;BME280_pressure;Samples;Min_cycle;Max_cycle;Signal;HPM_P1;HPM_P2
2024/02/17 00:02:25;;;;;;;12.50;5.97;;;10.50;99.90;;;;;;5077489;28;20206;-84
2024/02/17 00:04:51;;;;;;;13.50;6.07;;;10.60;99.90;;;;;;5077454;28;20625;-85
2024/02/17 00:07:17;;;;;;;12.93;6.03;;;10.60;99.90;;;;;;5077431;28;20176;-85
2024/02/17 00:09:44;;;;;;;11.37;5.90;;;10.40;99.90;;;;;;5077311;28;20658;-86
2024/02/17 00:12:10;;;;;;;13.80;6.27;;;10.50;99.90;;;;;;5095306;28;20164;-85
2024/02/17 00:14:37;;;;;;;13.97;6.13;;;10.50;99.90;;;;;;5077014;28;20259;-84
2024/02/17 00:17:04;;;;;;;14.50;5.90;;;10.50;99.90;;;;;;5076813;28;20220;-84
2024/02/17 00:19:30;;;;;;;17.13;6.07;;;10.50;99.90;;;;;;5077216;28;20172;-85
2024/02/17 00:21:56;;;;;;;15.03;6.30;;;10.50;99.90;;;;;;5076965;28;20176;-84
2024/02/17 00:24:22;;;;;;;9.97;5.23;;;10.60;99.90;;;;;;5077200;28;20233;-83
2024/02/17 00:26:48;;;;;;;14.37;5.40;;;10.70;99.90;;;;;;5077057;28;20168;-83
2024/02/17 00:29:15;;;;;;;9.87;5.57;;;10.60;99.90;;;;;;5076575;28;20203;-84
2024/02/17 00:31:44;;;;;;;10.73;6.10;;;10.60;99.90;;;;;;5077016;28;20164;-86
2024/02/17 00:34:11;;;;;;;12.93;6.07;;;10.70;99.90;;;;;;5076465;28;20186;-84
2024/02/17 00:36:37;;;;;;;14.47;6.30;;;10.90;99.90;;;;;;5077036;28;20226;-82
2024/02/17 00:39:03;;;;;;;14.97;6.23;;;10.80;99.90;;;;;;5076715;28;20203;-84
2024/02/17 00:41:29;;;;;;;19.10;5.97;;;10.80;99.90;;;;;;5076814;28;20190;-84
2024/02/17 00:43:54;;;;;;;17.23;6.07;;;10.70;99.90;;;;;;5076202;28;20168;-84
2024/02/17 00:46:20;;;;;;;13.07;6.33;;;10.60;99.90;;;;;;5076672;28;20267;-84
2024/02/17 00:48:46;;;;;;;13.03;6.07;;;10.70;99.90;;;;;;5076609;28;20225;-84
2024/02/17 00:51:14;;;;;;;12.40;5.57;;;10.60;99.90;;;;;;5076449;28;20183;-85
2024/02/17 00:53:42;;;;;;;13.07;5.40;;;10.50;99.90;;;;;;5076058;28;20632;-84
2024/02/17 00:56:08;;;;;;;15.93;6.03;;;10.60;99.90;;;;;;5076102;28;20171;-84
2024/02/17 00:58:34;;;;;;;12.57;5.70;;;10.50;99.90;;;;;;5075758;28;20185;-84
2024/02/17 01:00:59;;;;;;;14.27;5.80;;;10.40;99.90;;;;;;5076156;28;20702;-85
2024/02/17 01:03:25;;;;;;;14.00;5.73;;;10.50;99.90;;;;;;5076450;28;20195;-84
2024/02/17 01:05:51;;;;;;;13.93;5.33;;;10.40;99.90;;;;;;5076461;28;20172;-84
2024/02/17 01:08:17;;;;;;;13.57;5.53;;;10.50;99.90;;;;;;5075957;28;20540;-84
2024/02/17 01:10:43;;;;;;;14.87;6.00;;;10.40;99.90;;;;;;5076041;28;20198;-83
2024/02/17 01:13:09;;;;;;;10.23;5.30;;;10.30;99.90;;;;;;5075640;28;20167;-84
2024/02/17 01:15:36;;;;;;;12.60;5.97;;;10.30;99.90;;;;;;5075958;28;20523;-83
2024/02/17 01:18:02;;;;;;;14.53;5.53;;;10.30;99.90;;;;;;5075825;28;20218;-84
2024/02/17 01:20:27;;;;;;;13.73;6.07;;;10.20;99.90;;;;;;5075801;28;20216;-84
2024/02/17 01:22:53;;;;;;;14.20;5.93;;;10.30;99.90;;;;;;5075925;28;20589;-85
2024/02/17 01:25:20;;;;;;;10.67;5.03;;;10.30;99.90;;;;;;5075854;28;20179;-84
2024/02/17 01:27:47;;;;;;;11.73;5.87;;;10.20;99.90;;;;;;5075600;28;20176;-85
2024/02/17 01:30:13;;;;;;;12.70;5.60;;;10.10;99.90;;;;;;5075856;28;20252;-84
2024/02/17 01:32:39;;;;;;;10.27;5.07;;;10.00;99.90;;;;;;5076037;28;20631;-84
2024/02/17 01:35:05;;;;;;;13.70;5.80;;;10.00;99.90;;;;;;5094611;28;20168;-83
2024/02/17 01:37:31;;;;;;;13.53;5.67;;;10.10;99.90;;;;;;5075714;28;20208;-83
2024/02/17 01:39:56;;;;;;;10.13;4.73;;;10.10;99.90;;;;;;5075540;28;20258;-87
2024/02/17 01:42:22;;;;;;;15.87;5.30;;;10.00;99.90;;;;;;5093939;28;20297;-85
2024/02/17 01:44:48;;;;;;;11.33;5.03;;;10.00;99.90;;;;;;5079200;28;20470;-83
2024/02/17 01:47:14;;;;;;;13.10;6.00;;;10.10;99.90;;;;;;5093079;28;20206;-83
2024/02/17 01:49:40;;;;;;;15.83;5.87;;;10.20;99.90;;;;;;5087721;28;20709;-87
2024/02/17 01:52:08;;;;;;;10.57;5.33;;;10.10;99.90;;;;;;5075718;28;20202;-84
2024/02/17 01:54:33;;;;;;;13.90;5.50;;;10.10;99.90;;;;;;5075171;28;20190;-89
2024/02/17 01:57:01;;;;;;;12.97;5.50;;;10.00;99.90;;;;;;5075074;28;20678;-83
2024/02/17 01:59:27;;;;;;;12.83;5.03;;;9.90;99.90;;;;;;5075182;28;20188;-84
2024/02/17 02:01:55;;;;;;;9.00;4.60;;;9.90;99.90;;;;;;5093284;28;20190;-84
2024/02/17 02:04:21;;;;;;;13.20;4.97;;;9.90;99.90;;;;;;5075068;28;20270;-84
2024/02/17 02:06:47;;;;;;;13.13;5.27;;;9.80;99.90;;;;;;5075411;28;20186;-84
2024/02/17 02:09:14;;;;;;;14.87;5.67;;;9.80;99.90;;;;;;5092957;28;20705;-83
2024/02/17 02:11:40;;;;;;;18.70;6.07;;;9.90;99.90;;;;;;5074966;28;20280;-84
2024/02/17 02:14:16;;;;;;;9.13;5.13;;;9.70;99.90;;;;;;5075181;28;20175;-81
2024/02/17 02:16:43;;;;;;;16.53;5.33;;;9.70;99.90;;;;;;5075004;28;20207;-84
2024/02/17 02:19:10;;;;;;;13.13;5.20;;;9.70;99.90;;;;;;5074691;28;20178;-83
2024/02/17 02:21:37;;;;;;;12.83;5.60;;;9.70;99.90;;;;;;5074953;28;20171;-84
2024/02/17 02:24:03;;;;;;;11.57;5.27;;;9.70;99.90;;;;;;5074943;28;20376;-85
2024/02/17 02:26:33;;;;;;;9.20;5.13;;;9.70;99.90;;;;;;5074592;28;20639;-84
2024/02/17 02:28:59;;;;;;;10.63;5.27;;;9.60;99.90;;;;;;5075061;28;20246;-85
2024/02/17 02:31:25;;;;;;;10.63;4.87;;;9.70;99.90;;;;;;5074759;28;20708;-83
2024/02/17 02:33:51;;;;;;;12.00;5.30;;;9.70;99.90;;;;;;5075049;28;20179;-85
2024/02/17 02:36:18;;;;;;;11.30;4.80;;;9.80;99.90;;;;;;5074455;28;20179;-83
2024/02/17 02:38:44;;;;;;;15.43;4.90;;;9.90;99.90;;;;;;5074812;28;20711;-84
2024/02/17 02:41:11;;;;;;;11.23;4.60;;;9.90;99.90;;;;;;5074413;28;20176;-84
2024/02/17 02:43:37;;;;;;;14.67;5.00;;;9.90;99.90;;;;;;5074679;28;20171;-83
2024/02/17 02:46:03;;;;;;;14.70;5.30;;;9.90;99.90;;;;;;5074543;28;20245;-83
2024/02/17 02:48:29;;;;;;;11.87;5.30;;;9.90;99.90;;;;;;5074676;28;20648;-82
2024/02/17 02:50:54;;;;;;;11.23;5.37;;;9.90;99.90;;;;;;5074692;28;20244;-84
2024/02/17 02:53:20;;;;;;;12.43;4.10;;;9.90;99.90;;;;;;5074720;28;20217;-86
2024/02/17 02:55:46;;;;;;;12.87;5.17;;;9.80;99.90;;;;;;5074930;28;20706;-84
2024/02/17 02:58:12;;;;;;;11.60;4.73;;;9.80;99.90;;;;;;5078432;28;20575;-84
2024/02/17 03:00:37;;;;;;;15.03;5.30;;;9.80;99.90;;;;;;5078319;28;20203;-84
2024/02/17 03:03:03;;;;;;;17.63;5.30;;;9.90;99.90;;;;;;5096945;28;20573;-84
2024/02/17 03:05:30;;;;;;;12.17;5.10;;;10.00;99.90;;;;;;5078347;28;20175;-85
2024/02/17 03:07:56;;;;;;;15.60;5.20;;;10.00;99.90;;;;;;5078466;28;20607;-83
2024/02/17 03:10:22;;;;;;;15.27;5.03;;;10.00;99.90;;;;;;5096155;28;20174;-84
2024/02/17 03:12:47;;;;;;;11.40;4.93;;;9.90;99.90;;;;;;5078436;28;20270;-84
2024/02/17 03:15:13;;;;;;;9.93;4.27;;;9.80;99.90;;;;;;5078322;28;20175;-82
2024/02/17 03:17:39;;;;;;;10.67;4.70;;;9.90;99.90;;;;;;5078322;28;20714;-83
2024/02/17 03:20:05;;;;;;;14.10;5.00;;;10.00;99.90;;;;;;5078333;28;20640;-84
2024/02/17 03:22:33;;;;;;;10.63;4.70;;;10.00;99.90;;;;;;5078268;28;20178;-84
2024/02/17 03:24:58;;;;;;;10.83;4.90;;;9.90;99.90;;;;;;5077999;28;20179;-84
2024/02/17 03:27:24;;;;;;;12.20;4.90;;;9.90;99.90;;;;;;5078051;28;20176;-83
2024/02/17 03:29:50;;;;;;;15.53;5.63;;;9.90;99.90;;;;;;5078454;28;20182;-86
2024/02/17 03:32:15;;;;;;;12.53;4.60;;;9.90;99.90;;;;;;5096518;28;20168;-83
2024/02/17 03:34:42;;;;;;;13.67;5.00;;;9.90;99.90;;;;;;5102326;28;20220;-83
2024/02/17 03:37:08;;;;;;;14.57;4.97;;;9.90;99.90;;;;;;5084884;28;20219;-83
2024/02/17 03:39:37;;;;;;;12.50;4.83;;;10.10;99.90;;;;;;5079746;28;20171;-83
2024/02/17 03:42:03;;;;;;;15.37;5.13;;;10.00;99.90;;;;;;5078264;28;20176;-85
2024/02/17 03:44:29;;;;;;;12.23;4.77;;;9.90;99.90;;;;;;5079339;28;20202;-83
2024/02/17 03:46:55;;;;;;;10.73;4.67;;;9.90;99.90;;;;;;5077278;28;20183;-83
2024/02/17 03:49:20;;;;;;;10.07;4.30;;;10.00;99.90;;;;;;5077776;28;20167;-83
2024/02/17 03:51:50;;;;;;;12.93;4.43;;;9.80;99.90;;;;;;5077211;28;20236;-84
2024/02/17 03:54:17;;;;;;;12.30;4.63;;;9.80;99.90;;;;;;5077460;28;20207;-84
2024/02/17 03:56:43;;;;;;;14.97;5.00;;;9.80;99.90;;;;;;5095380;28;20192;-83
2024/02/17 03:59:08;;;;;;;14.17;4.43;;;9.80;99.90;;;;;;5077658;28;20271;-84
2024/02/17 04:01:36;;;;;;;13.43;4.30;;;9.80;99.90;;;;;;5077191;28;20679;-84
2024/02/17 04:04:03;;;;;;;18.63;4.40;;;9.70;99.90;;;;;;5077325;28;20624;-83
2024/02/17 04:06:30;;;;;;;14.10;4.70;;;9.70;99.90;;;;;;5076911;28;20172;-85
2024/02/17 04:08:56;;;;;;;13.20;4.70;;;9.70;99.90;;;;;;5077388;28;20648;-85
2024/02/17 04:11:22;;;;;;;14.13;5.13;;;9.80;99.90;;;;;;5076933;28;20187;-84
2024/02/17 04:13:48;;;;;;;11.80;4.50;;;9.90;99.90;;;;;;5077276;28;20272;-87
2024/02/17 04:16:13;;;;;;;14.57;5.20;;;9.80;99.90;;;;;;5077010;28;20211;-83
2024/02/17 04:18:39;;;;;;;21.47;4.60;;;9.70;99.90;;;;;;5076789;28;20219;-84
2024/02/17 04:21:05;;;;;;;9.83;4.10;;;9.70;99.90;;;;;;5076773;28;20647;-84
2024/02/17 04:23:31;;;;;;;14.97;4.30;;;9.80;99.90;;;;;;5076698;28;20219;-83
2024/02/17 04:26:00;;;;;;;14.93;4.73;;;9.80;99.90;;;;;;5076934;28;20176;-83
2024/02/17 04:28:25;;;;;;;13.50;5.17;;;9.90;99.90;;;;;;5076926;28;20199;-84
2024/02/17 04:30:51;;;;;;;12.97;4.50;;;9.90;99.90;;;;;;5076922;28;20211;-85
2024/02/17 04:33:17;;;;;;;16.23;4.90;;;9.80;99.90;;;;;;5076576;28;20538;-84
2024/02/17 04:35:42;;;;;;;11.23;4.37;;;9.90;99.90;;;;;;5076382;28;20176;-83
2024/02/17 04:38:08;;;;;;;14.07;5.40;;;10.00;99.90;;;;;;5076612;28;20272;-84
2024/02/17 04:40:35;;;;;;;14.07;4.80;;;9.90;99.90;;;;;;5094426;28;20175;-84
2024/02/17 04:43:01;;;;;;;19.63;5.07;;;10.00;99.90;;;;;;5076492;28;20187;-83
2024/02/17 04:45:27;;;;;;;16.43;5.03;;;9.90;99.90;;;;;;5076355;28;20179;-84
2024/02/17 04:47:53;;;;;;;11.53;4.53;;;9.90;99.90;;;;;;5094564;28;20542;-84
2024/02/17 04:50:18;;;;;;;14.73;5.03;;;9.80;99.90;;;;;;5076413;28;20549;-84
2024/02/17 04:52:44;;;;;;;18.30;4.20;;;9.80;99.90;;;;;;5076359;28;20603;-83
2024/02/17 04:55:10;;;;;;;12.37;4.60;;;9.90;99.90;;;;;;5076525;28;20620;-86
2024/02/17 04:57:35;;;;;;;14.03;4.80;;;9.70;99.90;;;;;;5094557;28;20203;-86
2024/02/17 05:00:05;;;;;;;14.67;4.10;;;9.90;99.90;;;;;;5076533;28;20194;-84
2024/02/17 05:02:30;;;;;;;11.27;4.27;;;9.80;99.90;;;;;;5076456;28;20180;-83
2024/02/17 05:04:56;;;;;;;13.23;4.53;;;9.80;99.90;;;;;;5075973;28;20172;-83
2024/02/17 05:07:21;;;;;;;13.70;4.70;;;9.90;99.90;;;;;;5075947;28;20176;-83
2024/02/17 05:09:47;;;;;;;13.67;4.40;;;10.10;99.90;;;;;;5094269;28;20225;-83
2024/02/17 05:12:13;;;;;;;13.87;4.27;;;10.00;99.90;;;;;;5094639;28;20176;-84
2024/02/17 05:14:39;;;;;;;10.17;3.50;;;9.90;99.90;;;;;;5094041;28;20266;-83
2024/02/17 05:17:04;;;;;;;9.33;4.33;;;10.00;99.90;;;;;;5094330;28;20207;-83
2024/02/17 05:19:30;;;;;;;21.03;5.23;;;9.90;99.90;;;;;;5093338;28;20258;-85
2024/02/17 05:21:58;;;;;;;14.23;4.00;;;10.10;99.90;;;;;;5076641;28;20176;-83
2024/02/17 05:24:23;;;;;;;10.90;4.10;;;10.00;99.90;;;;;;5083240;28;20176;-83
2024/02/17 05:26:49;;;;;;;16.90;3.93;;;10.20;99.90;;;;;;5082714;28;20198;-83
2024/02/17 05:29:15;;;;;;;13.63;3.93;;;9.90;99.90;;;;;;5093879;28;20660;-82
2024/02/17 05:31:41;;;;;;;16.77;4.30;;;10.00;99.90;;;;;;5093755;28;20238;-84
2024/02/17 05:34:06;;;;;;;10.03;3.27;;;10.00;99.90;;;;;;5075734;28;20187;-87
2024/02/17 05:36:32;;;;;;;12.80;4.00;;;10.00;99.90;;;;;;5075497;28;20167;-83
2024/02/17 05:38:58;;;;;;;16.70;3.70;;;10.10;99.90;;;;;;5075810;28;20263;-85
2024/02/17 05:41:24;;;;;;;11.43;4.07;;;10.20;99.90;;;;;;5093807;28;20175;-82
2024/02/17 05:43:50;;;;;;;12.03;3.80;;;10.10;99.90;;;;;;5075480;28;20184;-84
2024/02/17 05:46:16;;;;;;;14.60;3.73;;;10.20;99.90;;;;;;5075400;28;20536;-83
2024/02/17 05:48:45;;;;;;;17.47;4.07;;;10.10;99.90;;;;;;5075179;28;20654;-85
2024/02/17 05:51:11;;;;;;;12.17;3.83;;;10.10;99.90;;;;;;5076035;28;20211;-84
2024/02/17 05:53:37;;;;;;;10.80;3.87;;;10.10;99.90;;;;;;5076907;28;20176;-84
2024/02/17 05:56:03;;;;;;;11.40;3.50;;;10.00;99.90;;;;;;5075272;28;20176;-84
2024/02/17 05:58:30;;;;;;;12.03;4.33;;;10.10;99.90;;;;;;5093403;28;20298;-89
2024/02/17 06:01:00;;;;;;;14.20;3.80;;;10.10;99.90;;;;;;5075184;28;20185;-83
2024/02/17 06:03:26;;;;;;;12.00;3.90;;;10.30;99.90;;;;;;5093431;28;20196;-84
2024/02/17 06:05:52;;;;;;;13.23;3.90;;;10.20;99.90;;;;;;5093484;28;20171;-84
2024/02/17 06:08:19;;;;;;;10.40;3.40;;;10.10;99.90;;;;;;5075270;28;20169;-84
2024/02/17 06:10:44;;;;;;;10.93;3.90;;;10.30;99.90;;;;;;5074981;28;20167;-83
2024/02/17 06:13:10;;;;;;;12.37;4.13;;;10.20;99.90;;;;;;5075347;28;20316;-84
2024/02/17 06:15:37;;;;;;;13.23;3.63;;;10.10;99.90;;;;;;5093056;28;20160;-84
2024/02/17 06:23:32;;;;;;;10.73;3.57;;;10.20;99.90;;;;;;5093438;28;20175;-85
2024/02/17 06:25:57;;;;;;;11.77;4.10;;;10.20;99.90;;;;;;5074772;28;20175;-83
2024/02/17 06:28:23;;;;;;;9.87;3.33;;;10.30;99.90;;;;;;5093266;28;20210;-83
2024/02/17 06:30:49;;;;;;;9.60;3.40;;;10.30;99.90;;;;;;5074154;28;20611;-84
2024/02/17 06:33:14;;;;;;;10.83;3.77;;;10.20;99.90;;;;;;5074762;28;20174;-84
2024/02/17 06:35:40;;;;;;;10.63;3.87;;;10.30;99.90;;;;;;5074368;28;20175;-83
2024/02/17 06:38:06;;;;;;;12.30;3.73;;;10.20;99.90;;;;;;5075141;28;20222;-84
2024/02/17 06:40:31;;;;;;;12.87;4.47;;;10.30;99.90;;;;;;5092901;28;20200;-84
2024/02/17 06:42:57;;;;;;;12.20;4.10;;;10.50;99.90;;;;;;5093235;28;20577;-84
2024/02/17 06:45:22;;;;;;;9.50;3.20;;;10.50;99.90;;;;;;5074746;28;20647;-84
2024/02/17 06:47:48;;;;;;;15.00;3.47;;;10.30;99.90;;;;;;5074619;28;20178;-85
2024/02/17 06:50:14;;;;;;;8.83;3.77;;;10.50;99.90;;;;;;5074979;28;20175;-85
2024/02/17 06:52:40;;;;;;;10.37;3.73;;;10.40;99.90;;;;;;5074904;28;20639;-84
2024/02/17 06:55:06;;;;;;;13.87;3.63;;;10.40;99.90;;;;;;5075320;28;20179;-83
2024/02/17 06:57:32;;;;;;;14.43;3.97;;;10.40;99.90;;;;;;5074322;28;20218;-83
2024/02/17 06:59:58;;;;;;;16.43;4.13;;;10.50;99.90;;;;;;5074485;28;20192;-84
2024/02/17 07:02:23;;;;;;;12.70;4.20;;;10.40;99.90;;;;;;5092284;28;20187;-83
2024/02/17 07:04:50;;;;;;;11.20;4.00;;;10.40;99.90;;;;;;5074645;28;20647;-83
2024/02/17 07:07:16;;;;;;;14.50;4.00;;;10.30;99.90;;;;;;5074462;28;20173;-84
2024/02/17 07:09:42;;;;;;;10.53;3.43;;;10.40;99.90;;;;;;5074936;28;20183;-84
2024/02/17 07:12:07;;;;;;;12.60;4.20;;;10.30;99.90;;;;;;5086726;28;20168;-84
2024/02/17 07:14:33;;;;;;;12.10;4.17;;;10.30;99.90;;;;;;5086009;28;20276;-84
2024/02/17 07:16:59;;;;;;;9.70;3.60;;;10.20;99.90;;;;;;5091942;28;20667;-84
2024/02/17 07:19:25;;;;;;;15.47;4.00;;;10.30;99.90;;;;;;5074668;28;20203;-85
2024/02/17 07:21:52;;;;;;;10.20;4.07;;;10.30;99.90;;;;;;5092520;28;20620;-83
2024/02/17 07:24:17;;;;;;;13.70;4.33;;;10.20;99.90;;;;;;5074459;28;20210;-84
2024/02/17 07:26:44;;;;;;;14.47;4.23;;;10.30;99.90;;;;;;5074316;28;20173;-84
2024/02/17 07:29:11;;;;;;;12.50;4.47;;;10.30;99.90;;;;;;5073849;28;20181;-83
2024/02/17 07:31:43;;;;;;;12.67;4.30;;;10.20;99.90;;;;;;5074110;28;20167;-83
2024/02/17 07:34:11;;;;;;;18.53;4.50;;;10.30;99.90;;;;;;5092266;28;20216;-84
2024/02/17 07:36:38;;;;;;;15.80;4.93;;;10.30;99.90;;;;;;5074242;28;20189;-84
2024/02/17 07:39:05;;;;;;;13.00;4.00;;;10.20;99.90;;;;;;5092228;28;20258;-84
2024/02/17 07:41:31;;;;;;;11.87;4.97;;;10.30;99.90;;;;;;5074697;28;20172;-87
2024/02/17 07:43:56;;;;;;;11.80;4.30;;;10.30;99.90;;;;;;5077710;28;20171;-86
2024/02/17 07:46:22;;;;;;;10.93;4.93;;;10.50;99.90;;;;;;5095574;28;20191;-84
2024/02/17 07:48:47;;;;;;;13.80;4.60;;;10.60;99.90;;;;;;5077491;28;20612;-84
2024/02/17 07:51:13;;;;;;;15.33;4.73;;;10.70;99.90;;;;;;5077606;28;20267;-83
2024/02/17 07:53:40;;;;;;;10.07;4.13;;;10.70;99.90;;;;;;5077794;28;20176;-84
2024/02/17 07:56:08;;;;;;;13.00;4.63;;;10.50;99.90;;;;;;5077532;28;20630;-85
2024/02/17 07:58:34;;;;;;;10.73;4.70;;;10.60;99.90;;;;;;5078369;28;20272;-84
2024/02/17 08:00:59;;;;;;;14.63;4.53;;;10.70;99.90;;;;;;5082292;28;20201;-84
2024/02/17 08:03:27;;;;;;;13.60;4.07;;;10.70;99.90;;;;;;5095615;28;20176;-85
2024/02/17 08:05:53;;;;;;;13.23;4.40;;;10.60;99.90;;;;;;5095615;28;20165;-84
2024/02/17 08:08:19;;;;;;;11.80;4.03;;;10.70;99.90;;;;;;5077444;28;20600;-84
2024/02/17 08:10:45;;;;;;;10.77;4.33;;;10.80;99.90;;;;;;5095246;28;20207;-83
2024/02/17 08:13:11;;;;;;;14.83;4.40;;;10.70;99.90;;;;;;5076678;28;20181;-84
2024/02/17 08:15:38;;;;;;;11.27;4.90;;;10.80;99.90;;;;;;5077216;28;20172;-84
2024/02/17 08:18:04;;;;;;;13.60;4.00;;;10.80;99.90;;;;;;5094930;28;20212;-85
2024/02/17 08:20:30;;;;;;;12.30;4.70;;;10.90;99.90;;;;;;5077184;28;20203;-85
2024/02/17 08:22:56;;;;;;;11.07;4.40;;;10.80;99.90;;;;;;5076817;28;20172;-83
2024/02/17 08:25:21;;;;;;;11.67;4.50;;;10.80;99.90;;;;;;5076743;28;20173;-83
2024/02/17 08:27:47;;;;;;;10.80;4.37;;;10.70;99.90;;;;;;5076288;28;20206;-85
2024/02/17 08:30:13;;;;;;;12.97;4.27;;;10.70;99.90;;;;;;5076725;28;20188;-84
2024/02/17 08:32:38;;;;;;;11.50;4.67;;;10.70;99.90;;;;;;5076686;28;20184;-84
2024/02/17 08:35:04;;;;;;;16.10;5.17;;;10.90;99.90;;;;;;5095130;28;20168;-85
2024/02/17 08:37:30;;;;;;;14.30;4.50;;;11.10;99.90;;;;;;5076946;28;20307;-84
2024/02/17 08:39:56;;;;;;;16.93;5.13;;;11.20;99.90;;;;;;5077125;28;20607;-86
2024/02/17 08:42:22;;;;;;;10.43;4.50;;;11.10;99.90;;;;;;5076414;28;20183;-84
2024/02/17 08:44:52;;;;;;;10.10;3.97;;;11.10;99.90;;;;;;5076914;28;20169;-83
2024/02/17 08:47:22;;;;;;;12.57;4.93;;;11.00;99.90;;;;;;5076390;28;20187;-84
2024/02/17 08:49:48;;;;;;;14.80;4.97;;;10.80;99.90;;;;;;5094756;28;20251;-85
2024/02/17 08:52:14;;;;;;;9.00;4.80;;;11.00;99.90;;;;;;5094828;28;20169;-84
2024/02/17 08:54:41;;;;;;;10.93;4.77;;;11.00;99.90;;;;;;5075363;28;20311;-84
2024/02/17 08:57:06;;;;;;;14.23;4.47;;;10.80;99.90;;;;;;5076282;28;20209;-84
2024/02/17 08:59:33;;;;;;;12.77;4.40;;;10.90;99.90;;;;;;5076396;28;20187;-84
2024/02/17 09:01:59;;;;;;;10.87;4.03;;;11.00;99.90;;;;;;5077688;28;20293;-84
2024/02/17 09:04:24;;;;;;;9.97;4.50;;;11.10;99.90;;;;;;5076265;28;20259;-84
2024/02/17 09:06:51;;;;;;;14.67;5.07;;;11.00;99.90;;;;;;5075884;28;20168;-85
2024/02/17 09:09:17;;;;;;;13.17;4.80;;;10.90;99.90;;;;;;5094282;28;20548;-84
2024/02/17 09:11:44;;;;;;;12.40;4.57;;;10.90;99.90;;;;;;5075622;28;20171;-84
2024/02/17 09:14:10;;;;;;;10.10;4.00;;;10.90;99.90;;;;;;5079447;28;20183;-85
2024/02/17 09:16:36;;;;;;;13.63;4.80;;;10.90;99.90;;;;;;5079468;28;20180;-84
2024/02/17 09:19:02;;;;;;;10.73;4.30;;;11.20;99.90;;;;;;5079819;28;20231;-84
2024/02/17 09:21:27;;;;;;;12.80;4.60;;;11.20;99.90;;;;;;5080817;28;20166;-84
2024/02/17 09:23:53;;;;;;;13.73;5.03;;;11.30;99.90;;;;;;5078621;28;20195;-84
2024/02/17 09:26:20;;;;;;;13.13;4.97;;;11.20;99.90;;;;;;5075405;28;20201;-84
2024/02/17 09:28:45;;;;;;;9.90;4.47;;;11.30;99.90;;;;;;5075583;28;20172;-83
2024/02/17 09:31:11;;;;;;;13.27;4.20;;;11.30;99.90;;;;;;5075341;28;20586;-83
2024/02/17 09:33:37;;;;;;;15.00;4.90;;;11.30;99.90;;;;;;5075597;28;20172;-84
2024/02/17 09:36:03;;;;;;;16.73;4.43;;;11.30;99.90;;;;;;5075459;28;20214;-85
2024/02/17 09:38:29;;;;;;;13.40;4.47;;;11.30;99.90;;;;;;5075525;28;20571;-84
2024/02/17 09:40:54;;;;;;;12.37;4.10;;;11.40;99.90;;;;;;5093546;28;20164;-84
2024/02/17 09:43:20;;;;;;;19.20;4.83;;;11.20;99.90;;;;;;5075561;28;20654;-84
2024/02/17 09:45:46;;;;;;;14.10;4.77;;;11.20;99.90;;;;;;5075453;28;20183;-84
2024/02/17 09:48:13;;;;;;;12.10;4.50;;;11.30;99.90;;;;;;5075100;28;20245;-89
2024/02/17 09:50:42;;;;;;;9.83;4.37;;;11.30;99.90;;;;;;5075511;28;20172;-83
2024/02/17 09:53:09;;;;;;;12.47;4.60;;;11.50;99.90;;;;;;5075722;28;20655;-84
2024/02/17 09:55:36;;;;;;;15.60;5.10;;;11.60;99.90;;;;;;5074970;28;20191;-84
2024/02/17 09:58:02;;;;;;;19.53;5.23;;;11.50;99.90;;;;;;5075031;28;20208;-84
2024/02/17 10:00:28;;;;;;;12.53;5.43;;;11.50;99.90;;;;;;5075031;28;20206;-89
2024/02/17 10:02:54;;;;;;;27.27;7.90;;;11.60;99.90;;;;;;5075197;28;20182;-84
2024/02/17 10:05:27;;;;;;;12.00;6.10;;;11.70;99.90;;;;;;5093104;28;20178;-85
2024/02/17 10:07:54;;;;;;;15.00;6.03;;;11.80;99.90;;;;;;5075534;28;20266;-86
2024/02/17 10:10:21;;;;;;;23.13;6.60;;;11.80;99.90;;;;;;5075573;28;20241;-84
2024/02/17 10:12:47;;;;;;;17.90;6.50;;;11.90;99.90;;;;;;5094953;28;20247;-83
2024/02/17 10:15:12;;;;;;;18.73;6.90;;;11.90;98.30;;;;;;5074854;28;20264;-84
2024/02/17 10:17:40;;;;;;;14.23;6.53;;;12.00;98.10;;;;;;5075092;28;20303;-84
2024/02/17 10:20:11;;;;;;;16.73;6.03;;;12.10;95.70;;;;;;5093142;28;20193;-85
2024/02/17 10:22:37;;;;;;;13.17;5.93;;;12.10;94.10;;;;;;5075430;28;20183;-84
2024/02/17 10:25:03;;;;;;;31.80;9.50;;;12.20;94.20;;;;;;5076173;28;20220;-84
2024/02/17 10:27:29;;;;;;;33.87;9.37;;;12.20;94.30;;;;;;5077734;28;20190;-86
2024/02/17 10:30:08;;;;;;;15.10;6.07;;;12.40;92.20;;;;;;5074650;28;20624;-83
2024/02/17 10:32:34;;;;;;;15.13;6.53;;;12.50;83.40;;;;;;5074732;28;20204;-87
2024/02/17 10:35:05;;;;;;;13.63;5.63;;;12.70;78.20;;;;;;5074613;28;20259;-85
2024/02/17 10:37:32;;;;;;;14.90;6.10;;;12.70;75.50;;;;;;5074697;28;20253;-84
2024/02/17 10:40:05;;;;;;;14.37;6.10;;;12.80;77.40;;;;;;5074196;28;20913;-83
2024/02/17 10:42:33;;;;;;;16.43;6.07;;;12.80;71.10;;;;;;5074661;28;20175;-85
2024/02/17 10:45:02;;;;;;;11.33;5.47;;;12.80;72.00;;;;;;5074577;28;20258;-84
2024/02/17 10:47:34;;;;;;;12.33;5.47;;;12.80;75.90;;;;;;5074709;28;20172;-84
2024/02/17 10:50:09;;;;;;;16.07;5.93;;;12.70;75.50;;;;;;5074350;28;20189;-84
2024/02/17 10:53:00;;;;;;;11.57;5.70;;;12.60;81.60;;;;;;5074548;28;20167;-84
2024/02/17 10:55:34;;;;;;;15.43;5.83;;;12.70;83.80;;;;;;5076737;28;20181;-83
2024/02/17 10:58:05;;;;;;;13.17;5.67;;;12.80;82.70;;;;;;5074435;28;20210;-84
2024/02/17 11:00:33;;;;;;;12.60;6.57;;;12.90;83.50;;;;;;5073863;28;20200;-85
2024/02/17 11:03:04;;;;;;;13.77;5.53;;;13.00;81.00;;;;;;5074508;28;20300;-84
2024/02/17 11:05:33;;;;;;;14.50;5.43;;;13.10;78.80;;;;;;5073962;28;20663;-87
2024/02/17 11:08:00;;;;;;;16.20;6.17;;;13.20;70.60;;;;;;5092002;28;20206;-85
2024/02/17 11:10:30;;;;;;;13.87;5.10;;;13.50;55.60;;;;;;5092183;28;20806;-84
2024/02/17 11:12:56;;;;;;;12.30;4.80;;;13.40;52.30;;;;;;5073961;28;20524;-85
2024/02/17 11:15:23;;;;;;;14.30;5.67;;;13.40;53.80;;;;;;5073749;28;20267;-85
2024/02/17 11:17:56;;;;;;;16.40;5.03;;;13.40;59.10;;;;;;5077038;28;20279;-86
2024/02/17 11:20:22;;;;;;;17.10;4.53;;;13.30;66.10;;;;;;5078072;28;20175;-86
2024/02/17 11:22:50;;;;;;;10.40;4.83;;;13.40;57.70;;;;;;5077907;28;20227;-84
2024/02/17 11:25:40;;;;;;;14.03;5.07;;;13.60;56.50;;;;;;5077856;28;20167;-84
2024/02/17 11:28:24;;;;;;;10.23;4.90;;;13.70;56.30;;;;;;5095990;28;20171;-84
2024/02/17 11:31:00;;;;;;;13.73;4.93;;;13.60;57.20;;;;;;5095466;28;20512;-85
2024/02/17 11:33:31;;;;;;;11.97;4.93;;;13.60;60.10;;;;;;5077340;28;20290;-85
2024/02/17 11:35:58;;;;;;;10.53;4.53;;;13.80;55.30;;;;;;5076945;28;20175;-84
2024/02/17 11:38:25;;;;;;;9.33;4.13;;;14.00;51.10;;;;;;5077317;28;20675;-85
2024/02/17 11:40:59;;;;;;;8.63;4.67;;;14.00;45.30;;;;;;5077927;28;20603;-84
2024/02/17 11:43:28;;;;;;;11.03;5.07;;;14.30;38.30;;;;;;5077331;28;20206;-85
2024/02/17 11:45:55;;;;;;;12.53;4.77;;;14.10;41.40;;;;;;5095283;28;20182;-84
2024/02/17 11:48:22;;;;;;;14.60;4.37;;;14.00;42.50;;;;;;5077241;28;20171;-85
2024/02/17 11:50:47;;;;;;;9.60;4.47;;;14.00;39.80;;;;;;5077413;28;20256;-83
2024/02/17 11:53:16;;;;;;;12.53;4.67;;;14.20;37.40;;;;;;5095475;28;20699;-87
2024/02/17 11:55:42;;;;;;;12.33;4.43;;;14.30;32.70;;;;;;5077510;28;20187;-85
2024/02/17 11:58:10;;;;;;;10.70;3.67;;;14.30;30.20;;;;;;5077096;28;20205;-85
2024/02/17 12:00:49;;;;;;;9.10;3.97;;;14.10;27.90;;;;;;5077033;28;20291;-86
2024/02/17 12:03:15;;;;;;;11.67;4.97;;;14.10;30.70;;;;;;5077258;28;20183;-83
2024/02/17 12:05:41;;;;;;;14.77;5.20;;;13.90;32.40;;;;;;5076933;28;20193;-85
2024/02/17 12:08:07;;;;;;;14.17;4.40;;;14.00;34.50;;;;;;5076575;28;20206;-84
2024/02/17 12:10:33;;;;;;;10.80;4.40;;;14.00;33.30;;;;;;5095233;28;20199;-85
2024/02/17 12:12:59;;;;;;;8.90;4.37;;;14.10;17.00;;;;;;5077025;28;20196;-84
2024/02/17 12:15:25;;;;;;;12.60;4.90;;;14.10;10.30;;;;;;5076559;28;20655;-85
2024/02/17 12:17:52;;;;;;;10.83;4.30;;;14.00;13.00;;;;;;5095179;28;20246;-85
2024/02/17 12:20:18;;;;;;;12.33;4.40;;;14.20;1.00;;;;;;5094534;28;20171;-85
2024/02/17 12:22:50;;;;;;;11.23;4.80;;;14.30;1.00;;;;;;5077069;28;20176;-88
2024/02/17 12:25:17;;;;;;;12.23;5.50;;;14.30;1.00;;;;;;5076783;28;20172;-85
2024/02/17 12:27:45;;;;;;;12.17;4.93;;;14.30;1.00;;;;;;5077281;28;20172;-84
2024/02/17 12:30:13;;;;;;;11.23;4.77;;;14.30;1.00;;;;;;5077071;28;20187;-84
2024/02/17 12:32:40;;;;;;;14.00;5.17;;;14.20;1.00;;;;;;5076850;28;20183;-84
2024/02/17 12:35:11;;;;;;;12.13;4.63;;;14.20;1.00;;;;;;5076818;28;20175;-86
2024/02/17 12:37:44;;;;;;;15.43;5.10;;;14.30;1.00;;;;;;5075927;28;20302;-83
2024/02/17 12:40:20;;;;;;;12.33;5.43;;;14.40;1.00;;;;;;5076100;28;20171;-84
2024/02/17 12:42:53;;;;;;;10.53;5.53;;;14.40;1.60;;;;;;5076109;28;20647;-87
2024/02/17 12:45:23;;;;;;;11.63;5.53;;;14.60;1.00;;;;;;5076838;28;20170;-85